sensor_id;sensor_type;location;lat;lon;timestamp;P1;durP1;ratioP1;P2;durP2;ratioP2
13366;SDS011;6752;52.612;13.630;2022-10-22T00:01:18;24.17;;;19.02;;
13366;SDS011;6752;52.612;13.630;2022-10-22T00:06:21;24.10;;;19.15;;
13366;SDS011;6752;52.612;13.630;2022-10-22T00:16:31;24.40;;;19.45;;
13366;SDS011;6752;52.612;13.630;2022-10-22T00:21:34;25.10;;;19.62;;
13366;SDS011;6752;52.612;13.630;2022-10-22T00:26:39;31.58;;;22.35;;
13366;SDS011;6752;52.612;13.630;2022-10-22T00:31:41;24.35;;;17.35;;
13366;SDS011;6752;52.612;13.630;2022-10-22T00:41:46;27.80;;;22.90;;
13366;SDS011;6752;52.612;13.630;2022-10-22T00:46:48;27.48;;;22.23;;
13366;SDS011;6752;52.612;13.630;2022-10-22T00:51:50;22.30;;;18.15;;
13366;SDS011;6752;52.612;13.630;2022-10-22T00:56:52;23.67;;;17.12;;
13366;SDS011;6752;52.612;13.630;2022-10-22T01:01:55;24.02;;;20.55;;
13366;SDS011;6752;52.612;13.630;2022-10-22T01:06:57;24.75;;;19.83;;
13366;SDS011;6752;52.612;13.630;2022-10-22T01:22:50;37.03;;;18.27;;
13366;SDS011;6752;52.612;13.630;2022-10-22T01:33:22;90.03;;;30.30;;
13366;SDS011;6752;52.612;13.630;2022-10-22T01:38:27;101.97;;;31.42;;
13366;SDS011;6752;52.612;13.630;2022-10-22T01:43:32;34.25;;;22.20;;
13366;SDS011;6752;52.612;13.630;2022-10-22T01:53:59;30.70;;;22.40;;
13366;SDS011;6752;52.612;13.630;2022-10-22T01:59:19;32.72;;;21.62;;
13366;SDS011;6752;52.612;13.630;2022-10-22T02:04:22;55.17;;;26.40;;
13366;SDS011;6752;52.612;13.630;2022-10-22T02:09:31;39.58;;;25.92;;
13366;SDS011;6752;52.612;13.630;2022-10-22T02:19:40;56.60;;;29.90;;
13366;SDS011;6752;52.612;13.630;2022-10-22T02:24:43;42.72;;;29.33;;
13366;SDS011;6752;52.612;13.630;2022-10-22T02:30:05;41.80;;;29.73;;
13366;SDS011;6752;52.612;13.630;2022-10-22T02:35:10;36.40;;;26.77;;
13366;SDS011;6752;52.612;13.630;2022-10-22T02:40:12;33.03;;;22.55;;
13366;SDS011;6752;52.612;13.630;2022-10-22T02:45:14;30.83;;;21.73;;
13366;SDS011;6752;52.612;13.630;2022-10-22T02:50:16;28.12;;;20.15;;
13366;SDS011;6752;52.612;13.630;2022-10-22T02:55:19;35.42;;;22.10;;
13366;SDS011;6752;52.612;13.630;2022-10-22T03:00:21;41.78;;;24.65;;
13366;SDS011;6752;52.612;13.630;2022-10-22T03:05:24;28.17;;;22.85;;
13366;SDS011;6752;52.612;13.630;2022-10-22T03:10:26;49.05;;;24.37;;
13366;SDS011;6752;52.612;13.630;2022-10-22T03:15:28;49.50;;;24.50;;
13366;SDS011;6752;52.612;13.630;2022-10-22T03:20:31;102.87;;;30.33;;
13366;SDS011;6752;52.612;13.630;2022-10-22T03:25:36;63.20;;;24.70;;
13366;SDS011;6752;52.612;13.630;2022-10-22T03:30:38;24.15;;;18.95;;
13366;SDS011;6752;52.612;13.630;2022-10-22T03:35:42;25.27;;;19.25;;
13366;SDS011;6752;52.612;13.630;2022-10-22T03:40:43;23.98;;;19.30;;
13366;SDS011;6752;52.612;13.630;2022-10-22T03:50:48;113.70;;;29.75;;
13366;SDS011;6752;52.612;13.630;2022-10-22T03:55:50;25.40;;;21.20;;
13366;SDS011;6752;52.612;13.630;2022-10-22T04:00:52;144.15;;;28.30;;
13366;SDS011;6752;52.612;13.630;2022-10-22T04:06:09;54.22;;;18.20;;
13366;SDS011;6752;52.612;13.630;2022-10-22T04:11:09;80.07;;;24.73;;
13366;SDS011;6752;52.612;13.630;2022-10-22T04:16:15;19.37;;;15.48;;
13366;SDS011;6752;52.612;13.630;2022-10-22T04:21:14;19.08;;;15.13;;
13366;SDS011;6752;52.612;13.630;2022-10-22T04:26:19;17.48;;;13.57;;
13366;SDS011;6752;52.612;13.630;2022-10-22T04:31:22;17.33;;;14.98;;
13366;SDS011;6752;52.612;13.630;2022-10-22T04:36:27;20.92;;;16.00;;
13366;SDS011;6752;52.612;13.630;2022-10-22T04:41:30;24.45;;;18.67;;
13366;SDS011;6752;52.612;13.630;2022-10-22T04:46:32;20.92;;;17.10;;
13366;SDS011;6752;52.612;13.630;2022-10-22T04:51:34;50.45;;;21.12;;
13366;SDS011;6752;52.612;13.630;2022-10-22T04:56:36;38.17;;;20.75;;
13366;SDS011;6752;52.612;13.630;2022-10-22T05:01:40;35.72;;;20.27;;
13366;SDS011;6752;52.612;13.630;2022-10-22T05:06:41;158.77;;;28.58;;
13366;SDS011;6752;52.612;13.630;2022-10-22T05:11:44;96.70;;;25.25;;
13366;SDS011;6752;52.612;13.630;2022-10-22T05:16:46;70.00;;;24.75;;
13366;SDS011;6752;52.612;13.630;2022-10-22T05:21:49;42.45;;;22.60;;
13366;SDS011;6752;52.612;13.630;2022-10-22T05:26:51;95.72;;;24.85;;
13366;SDS011;6752;52.612;13.630;2022-10-22T05:31:53;25.35;;;20.23;;
13366;SDS011;6752;52.612;13.630;2022-10-22T05:36:55;21.75;;;19.45;;
13366;SDS011;6752;52.612;13.630;2022-10-22T05:41:58;20.77;;;17.80;;
13366;SDS011;6752;52.612;13.630;2022-10-22T05:47:00;50.35;;;19.35;;
13366;SDS011;6752;52.612;13.630;2022-10-22T05:52:02;35.85;;;17.98;;
13366;SDS011;6752;52.612;13.630;2022-10-22T05:57:05;21.67;;;18.55;;
13366;SDS011;6752;52.612;13.630;2022-10-22T06:02:10;20.27;;;16.85;;
13366;SDS011;6752;52.612;13.630;2022-10-22T06:17:16;263.02;;;33.33;;
13366;SDS011;6752;52.612;13.630;2022-10-22T06:27:30;129.00;;;26.05;;
13366;SDS011;6752;52.612;13.630;2022-10-22T06:32:32;292.65;;;35.92;;
13366;SDS011;6752;52.612;13.630;2022-10-22T06:37:35;116.55;;;26.02;;
13366;SDS011;6752;52.612;13.630;2022-10-22T06:42:37;73.80;;;22.50;;
13366;SDS011;6752;52.612;13.630;2022-10-22T06:52:42;125.07;;;27.15;;
13366;SDS011;6752;52.612;13.630;2022-10-22T06:57:45;110.60;;;28.62;;
13366;SDS011;6752;52.612;13.630;2022-10-22T07:02:50;52.58;;;22.05;;
13366;SDS011;6752;52.612;13.630;2022-10-22T07:07:52;51.45;;;21.10;;
13366;SDS011;6752;52.612;13.630;2022-10-22T07:12:55;61.65;;;25.05;;
13366;SDS011;6752;52.612;13.630;2022-10-22T07:18:00;73.53;;;25.42;;
13366;SDS011;6752;52.612;13.630;2022-10-22T07:23:02;76.07;;;26.45;;
13366;SDS011;6752;52.612;13.630;2022-10-22T07:28:04;29.00;;;21.55;;
13366;SDS011;6752;52.612;13.630;2022-10-22T07:33:10;80.68;;;29.55;;
13366;SDS011;6752;52.612;13.630;2022-10-22T07:38:12;49.78;;;28.62;;
13366;SDS011;6752;52.612;13.630;2022-10-22T07:43:15;29.95;;;24.65;;
13366;SDS011;6752;52.612;13.630;2022-10-22T08:03:29;39.97;;;26.95;;
13366;SDS011;6752;52.612;13.630;2022-10-22T08:08:31;35.55;;;26.48;;
13366;SDS011;6752;52.612;13.630;2022-10-22T08:13:37;40.00;;;28.50;;
13366;SDS011;6752;52.612;13.630;2022-10-22T08:18:39;32.10;;;23.85;;
13366;SDS011;6752;52.612;13.630;2022-10-22T08:23:44;28.80;;;24.85;;
13366;SDS011;6752;52.612;13.630;2022-10-22T08:28:47;26.73;;;21.62;;
13366;SDS011;6752;52.612;13.630;2022-10-22T08:33:49;25.33;;;21.97;;
13366;SDS011;6752;52.612;13.630;2022-10-22T08:38:54;24.80;;;19.40;;
13366;SDS011;6752;52.612;13.630;2022-10-22T08:49:36;27.85;;;21.65;;
13366;SDS011;6752;52.612;13.630;2022-10-22T08:54:51;26.27;;;21.17;;
13366;SDS011;6752;52.612;13.630;2022-10-22T09:00:03;22.50;;;20.00;;
13366;SDS011;6752;52.612;13.630;2022-10-22T09:05:07;26.85;;;19.12;;
13366;SDS011;6752;52.612;13.630;2022-10-22T09:10:12;22.70;;;17.80;;
13366;SDS011;6752;52.612;13.630;2022-10-22T09:15:15;25.17;;;18.60;;
13366;SDS011;6752;52.612;13.630;2022-10-22T09:25:23;28.17;;;20.58;;
13366;SDS011;6752;52.612;13.630;2022-10-22T09:30:29;24.52;;;19.37;;
13366;SDS011;6752;52.612;13.630;2022-10-22T09:35:46;24.92;;;20.77;;
13366;SDS011;6752;52.612;13.630;2022-10-22T09:45:48;23.08;;;18.65;;
13366;SDS011;6752;52.612;13.630;2022-10-22T09:50:57;29.20;;;20.75;;
13366;SDS011;6752;52.612;13.630;2022-10-22T09:55:57;25.48;;;19.05;;
13366;SDS011;6752;52.612;13.630;2022-10-22T10:00:56;25.60;;;18.62;;
13366;SDS011;6752;52.612;13.630;2022-10-22T10:05:58;26.85;;;19.90;;
13366;SDS011;6752;52.612;13.630;2022-10-22T10:21:32;23.95;;;16.65;;
13366;SDS011;6752;52.612;13.630;2022-10-22T10:26:36;23.10;;;18.17;;
13366;SDS011;6752;52.612;13.630;2022-10-22T10:42:14;23.67;;;18.73;;
13366;SDS011;6752;52.612;13.630;2022-10-22T10:58:04;24.45;;;18.45;;
13366;SDS011;6752;52.612;13.630;2022-10-22T11:14:13;24.45;;;19.10;;
13366;SDS011;6752;52.612;13.630;2022-10-22T11:19:37;27.62;;;20.02;;
13366;SDS011;6752;52.612;13.630;2022-10-22T11:35:20;28.58;;;21.33;;
13366;SDS011;6752;52.612;13.630;2022-10-22T11:45:31;31.80;;;22.15;;
13366;SDS011;6752;52.612;13.630;2022-10-22T11:50:46;31.25;;;22.83;;
13366;SDS011;6752;52.612;13.630;2022-10-22T11:55:52;36.30;;;24.52;;
13366;SDS011;6752;52.612;13.630;2022-10-22T12:00:55;29.83;;;21.25;;
13366;SDS011;6752;52.612;13.630;2022-10-22T12:16:21;23.58;;;17.12;;
13366;SDS011;6752;52.612;13.630;2022-10-22T12:21:22;27.13;;;18.35;;
13366;SDS011;6752;52.612;13.630;2022-10-22T12:26:25;25.67;;;16.95;;
13366;SDS011;6752;52.612;13.630;2022-10-22T12:36:34;25.48;;;18.33;;
13366;SDS011;6752;52.612;13.630;2022-10-22T12:41:39;19.77;;;16.00;;
13366;SDS011;6752;52.612;13.630;2022-10-22T12:46:42;16.65;;;13.95;;
13366;SDS011;6752;52.612;13.630;2022-10-22T12:51:44;18.70;;;14.00;;
13366;SDS011;6752;52.612;13.630;2022-10-22T12:56:46;20.67;;;13.60;;
13366;SDS011;6752;52.612;13.630;2022-10-22T13:01:49;21.02;;;12.82;;
13366;SDS011;6752;52.612;13.630;2022-10-22T13:07:02;16.65;;;11.80;;
13366;SDS011;6752;52.612;13.630;2022-10-22T13:11:54;15.13;;;11.10;;
13366;SDS011;6752;52.612;13.630;2022-10-22T13:22:29;13.88;;;10.25;;
13366;SDS011;6752;52.612;13.630;2022-10-22T13:27:34;12.30;;;7.70;;
13366;SDS011;6752;52.612;13.630;2022-10-22T13:32:36;12.85;;;7.00;;
13366;SDS011;6752;52.612;13.630;2022-10-22T13:37:39;16.58;;;6.90;;
13366;SDS011;6752;52.612;13.630;2022-10-22T13:42:41;12.30;;;6.25;;
13366;SDS011;6752;52.612;13.630;2022-10-22T13:47:44;11.73;;;5.40;;
13366;SDS011;6752;52.612;13.630;2022-10-22T13:52:48;10.25;;;5.10;;
13366;SDS011;6752;52.612;13.630;2022-10-22T13:57:55;11.40;;;4.37;;
13366;SDS011;6752;52.612;13.630;2022-10-22T14:03:02;11.57;;;5.12;;
13366;SDS011;6752;52.612;13.630;2022-10-22T14:08:08;10.68;;;4.40;;
13366;SDS011;6752;52.612;13.630;2022-10-22T14:13:15;9.43;;;3.78;;
13366;SDS011;6752;52.612;13.630;2022-10-22T14:18:26;8.27;;;3.75;;
13366;SDS011;6752;52.612;13.630;2022-10-22T14:23:26;13.13;;;4.62;;
13366;SDS011;6752;52.612;13.630;2022-10-22T14:28:29;8.93;;;3.67;;
13366;SDS011;6752;52.612;13.630;2022-10-22T14:33:32;10.07;;;3.28;;
13366;SDS011;6752;52.612;13.630;2022-10-22T14:38:37;8.75;;;3.17;;
13366;SDS011;6752;52.612;13.630;2022-10-22T14:43:39;10.23;;;3.03;;
13366;SDS011;6752;52.612;13.630;2022-10-22T14:48:44;10.67;;;3.83;;
13366;SDS011;6752;52.612;13.630;2022-10-22T14:53:47;9.70;;;3.58;;
13366;SDS011;6752;52.612;13.630;2022-10-22T14:58:52;9.85;;;2.85;;
13366;SDS011;6752;52.612;13.630;2022-10-22T15:03:55;10.27;;;4.40;;
13366;SDS011;6752;52.612;13.630;2022-10-22T15:09:00;11.65;;;3.37;;
13366;SDS011;6752;52.612;13.630;2022-10-22T15:19:07;8.82;;;3.78;;
13366;SDS011;6752;52.612;13.630;2022-10-22T15:29:14;13.55;;;7.75;;
13366;SDS011;6752;52.612;13.630;2022-10-22T15:39:21;12.18;;;6.68;;
13366;SDS011;6752;52.612;13.630;2022-10-22T15:44:24;13.98;;;6.90;;
13366;SDS011;6752;52.612;13.630;2022-10-22T15:49:26;13.77;;;6.15;;
13366;SDS011;6752;52.612;13.630;2022-10-22T15:54:31;13.05;;;6.05;;
13366;SDS011;6752;52.612;13.630;2022-10-22T15:59:33;13.52;;;6.53;;
13366;SDS011;6752;52.612;13.630;2022-10-22T16:04:39;14.18;;;8.48;;
13366;SDS011;6752;52.612;13.630;2022-10-22T16:09:41;12.52;;;8.20;;
13366;SDS011;6752;52.612;13.630;2022-10-22T16:14:44;10.25;;;6.60;;
13366;SDS011;6752;52.612;13.630;2022-10-22T16:19:46;10.38;;;5.40;;
13366;SDS011;6752;52.612;13.630;2022-10-22T16:24:48;12.40;;;5.95;;
13366;SDS011;6752;52.612;13.630;2022-10-22T16:29:57;12.95;;;5.95;;
13366;SDS011;6752;52.612;13.630;2022-10-22T16:34:59;9.13;;;4.93;;
13366;SDS011;6752;52.612;13.630;2022-10-22T16:50:08;9.00;;;4.80;;
13366;SDS011;6752;52.612;13.630;2022-10-22T16:55:10;10.00;;;4.60;;
13366;SDS011;6752;52.612;13.630;2022-10-22T17:00:13;11.25;;;4.78;;
13366;SDS011;6752;52.612;13.630;2022-10-22T17:05:15;15.68;;;6.45;;
13366;SDS011;6752;52.612;13.630;2022-10-22T17:10:18;13.07;;;6.35;;
13366;SDS011;6752;52.612;13.630;2022-10-22T17:15:20;12.50;;;6.60;;
13366;SDS011;6752;52.612;13.630;2022-10-22T17:20:23;11.82;;;6.05;;
13366;SDS011;6752;52.612;13.630;2022-10-22T17:25:35;10.02;;;6.35;;
13366;SDS011;6752;52.612;13.630;2022-10-22T17:30:37;9.52;;;5.45;;
13366;SDS011;6752;52.612;13.630;2022-10-22T17:45:43;10.68;;;5.82;;
13366;SDS011;6752;52.612;13.630;2022-10-22T18:00:49;12.70;;;7.18;;
13366;SDS011;6752;52.612;13.630;2022-10-22T18:05:51;11.52;;;7.85;;
13366;SDS011;6752;52.612;13.630;2022-10-22T18:10:54;14.38;;;7.75;;
13366;SDS011;6752;52.612;13.630;2022-10-22T18:15:56;15.10;;;9.30;;
13366;SDS011;6752;52.612;13.630;2022-10-22T18:20:58;12.15;;;7.07;;
13366;SDS011;6752;52.612;13.630;2022-10-22T18:31:09;17.30;;;9.18;;
13366;SDS011;6752;52.612;13.630;2022-10-22T18:36:09;14.52;;;8.90;;
13366;SDS011;6752;52.612;13.630;2022-10-22T18:41:10;15.43;;;9.60;;
13366;SDS011;6752;52.612;13.630;2022-10-22T18:46:15;12.40;;;8.52;;
13366;SDS011;6752;52.612;13.630;2022-10-22T18:51:17;11.95;;;8.18;;
13366;SDS011;6752;52.612;13.630;2022-10-22T18:56:20;18.80;;;11.98;;
13366;SDS011;6752;52.612;13.630;2022-10-22T19:01:24;40.65;;;26.00;;
13366;SDS011;6752;52.612;13.630;2022-10-22T19:11:26;31.50;;;19.42;;
13366;SDS011;6752;52.612;13.630;2022-10-22T19:16:29;25.12;;;16.60;;
13366;SDS011;6752;52.612;13.630;2022-10-22T19:26:33;25.08;;;14.85;;
13366;SDS011;6752;52.612;13.630;2022-10-22T19:31:36;31.62;;;23.20;;
13366;SDS011;6752;52.612;13.630;2022-10-22T19:36:38;33.97;;;24.63;;
13366;SDS011;6752;52.612;13.630;2022-10-22T19:41:40;24.30;;;17.33;;
13366;SDS011;6752;52.612;13.630;2022-10-22T19:46:43;19.00;;;14.32;;
13366;SDS011;6752;52.612;13.630;2022-10-22T19:51:45;19.30;;;13.45;;
13366;SDS011;6752;52.612;13.630;2022-10-22T19:56:48;14.23;;;10.80;;
13366;SDS011;6752;52.612;13.630;2022-10-22T20:01:50;12.65;;;9.07;;
13366;SDS011;6752;52.612;13.630;2022-10-22T20:06:56;16.17;;;10.07;;
13366;SDS011;6752;52.612;13.630;2022-10-22T20:11:55;16.23;;;9.32;;
13366;SDS011;6752;52.612;13.630;2022-10-22T20:16:57;16.90;;;10.77;;
13366;SDS011;6752;52.612;13.630;2022-10-22T20:22:00;15.45;;;9.63;;
13366;SDS011;6752;52.612;13.630;2022-10-22T20:27:02;11.82;;;9.18;;
13366;SDS011;6752;52.612;13.630;2022-10-22T20:32:07;14.32;;;9.68;;
13366;SDS011;6752;52.612;13.630;2022-10-22T20:37:09;13.65;;;10.52;;
13366;SDS011;6752;52.612;13.630;2022-10-22T20:42:12;19.35;;;13.68;;
13366;SDS011;6752;52.612;13.630;2022-10-22T20:47:14;19.30;;;9.50;;
13366;SDS011;6752;52.612;13.630;2022-10-22T20:52:16;15.07;;;7.78;;
13366;SDS011;6752;52.612;13.630;2022-10-22T20:57:19;15.95;;;7.70;;
13366;SDS011;6752;52.612;13.630;2022-10-22T21:02:21;9.20;;;6.20;;
13366;SDS011;6752;52.612;13.630;2022-10-22T21:12:26;10.05;;;5.55;;
13366;SDS011;6752;52.612;13.630;2022-10-22T21:17:28;9.65;;;5.57;;
13366;SDS011;6752;52.612;13.630;2022-10-22T21:22:31;11.63;;;5.95;;
13366;SDS011;6752;52.612;13.630;2022-10-22T21:27:34;9.10;;;5.30;;
13366;SDS011;6752;52.612;13.630;2022-10-22T21:32:36;9.65;;;4.65;;
13366;SDS011;6752;52.612;13.630;2022-10-22T21:37:39;9.30;;;5.05;;
13366;SDS011;6752;52.612;13.630;2022-10-22T21:42:41;8.10;;;4.32;;
13366;SDS011;6752;52.612;13.630;2022-10-22T21:47:43;8.65;;;4.82;;
13366;SDS011;6752;52.612;13.630;2022-10-22T21:52:46;8.70;;;4.85;;
13366;SDS011;6752;52.612;13.630;2022-10-22T22:02:51;9.07;;;4.85;;
13366;SDS011;6752;52.612;13.630;2022-10-22T22:07:54;9.27;;;5.07;;
13366;SDS011;6752;52.612;13.630;2022-10-22T22:12:56;10.25;;;5.00;;
13366;SDS011;6752;52.612;13.630;2022-10-22T22:17:59;9.98;;;5.10;;
13366;SDS011;6752;52.612;13.630;2022-10-22T22:23:01;17.87;;;5.68;;
13366;SDS011;6752;52.612;13.630;2022-10-22T22:28:03;12.77;;;5.82;;
13366;SDS011;6752;52.612;13.630;2022-10-22T22:33:06;13.40;;;6.22;;
13366;SDS011;6752;52.612;13.630;2022-10-22T22:38:08;10.80;;;5.15;;
13366;SDS011;6752;52.612;13.630;2022-10-22T22:43:10;10.80;;;5.70;;
13366;SDS011;6752;52.612;13.630;2022-10-22T22:48:13;11.77;;;5.35;;
13366;SDS011;6752;52.612;13.630;2022-10-22T22:53:15;11.57;;;6.00;;
13366;SDS011;6752;52.612;13.630;2022-10-22T22:58:20;11.40;;;6.62;;
13366;SDS011;6752;52.612;13.630;2022-10-22T23:03:23;11.18;;;5.68;;
13366;SDS011;6752;52.612;13.630;2022-10-22T23:13:33;16.08;;;7.28;;
13366;SDS011;6752;52.612;13.630;2022-10-22T23:18:38;17.33;;;6.80;;
13366;SDS011;6752;52.612;13.630;2022-10-22T23:23:45;11.23;;;6.35;;
13366;SDS011;6752;52.612;13.630;2022-10-22T23:28:50;13.15;;;7.15;;
13366;SDS011;6752;52.612;13.630;2022-10-22T23:33:49;11.12;;;6.90;;
13366;SDS011;6752;52.612;13.630;2022-10-22T23:38:54;15.00;;;6.65;;
13366;SDS011;6752;52.612;13.630;2022-10-22T23:43:57;10.65;;;6.72;;
13366;SDS011;6752;52.612;13.630;2022-10-22T23:49:03;13.00;;;7.15;;
13366;SDS011;6752;52.612;13.630;2022-10-22T23:54:06;12.07;;;6.55;;
13366;SDS011;6752;52.612;13.630;2022-10-22T23:59:07;11.32;;;6.28;;
